Terminal Aerodrome Forecast
Issued by NWS Shreveport, LA

Home | Current Version | Previous Version | Text Only | Print | Product List | Glossary On
Versions: 1 2 3 4 5 6 7 8 9 10 11 12 13 14 15 16 17 18 19
765
FTUS44 KSHV 280551
TAFGGG
TAF
KGGG 280551Z 2806/0106 18010KT P6SM BKN020 BKN050 OVC070
     FM281600 20013G22KT P6SM BKN025 OVC035
     FM282100 19015G24KT P6SM BKN035 BKN250=

USA.gov is the U.S. government's official web portal to all federal, state and local government web resources and services.